Time;durP1;ratioP1;P1;durP2;ratioP2;P2;SDS_P1;SDS_P2;PMS_P1;PMS_P2;Temp;Humidity;BMP_temperature;BMP_pressure;BME280_temperature;BME280_humidity;BME280_pressure;Samples;Min_cycle;Max_cycle;Signal;HPM_P1;HPM_P2
2022/07/17 00:01:12;;;;;;;1.70;0.40;;;12.70;99.90;;;;;;6127068;23;20018;-86
2022/07/17 00:03:37;;;;;;;1.90;0.40;;;12.70;99.90;;;;;;6127202;23;20013;-86
2022/07/17 00:06:03;;;;;;;3.65;0.50;;;12.80;99.90;;;;;;6101163;23;20417;-86
2022/07/17 00:08:31;;;;;;;3.08;0.50;;;12.60;99.90;;;;;;6127547;23;20072;-86
2022/07/17 00:10:58;;;;;;;1.48;0.50;;;12.60;99.90;;;;;;6101057;23;20080;-86
2022/07/17 00:13:24;;;;;;;1.25;0.40;;;12.50;99.90;;;;;;6101033;23;20014;-86
2022/07/17 00:15:50;;;;;;;3.35;0.63;;;12.50;99.90;;;;;;6127418;23;20497;-86
2022/07/17 00:18:15;;;;;;;1.13;0.50;;;12.50;99.90;;;;;;6101143;23;20445;-86
2022/07/17 00:20:43;;;;;;;2.40;0.52;;;12.60;99.90;;;;;;6127092;23;20089;-86
2022/07/17 00:23:09;;;;;;;1.88;0.50;;;12.40;99.90;;;;;;6101780;23;20381;-87
2022/07/17 00:25:38;;;;;;;1.30;0.40;;;12.30;99.90;;;;;;6129423;23;20050;-87
2022/07/17 00:28:05;;;;;;;2.00;0.60;;;12.40;99.90;;;;;;6156586;23;20025;-86
2022/07/17 00:30:30;;;;;;;2.05;0.73;;;13.20;99.90;;;;;;6156511;23;20441;-86
2022/07/17 00:32:56;;;;;;;1.73;0.77;;;12.40;99.90;;;;;;6129973;23;20017;-86
2022/07/17 00:35:22;;;;;;;0.50;0.50;;;13.00;99.90;;;;;;6130070;23;20041;-87
2022/07/17 00:37:49;;;;;;;0.93;0.40;;;12.30;99.90;;;;;;6156727;23;20018;-86
2022/07/17 00:40:20;;;;;;;2.40;0.88;;;12.20;99.90;;;;;;6130252;23;20017;-86
2022/07/17 00:42:46;;;;;;;2.63;0.52;;;12.10;99.90;;;;;;6130294;23;20028;-85
2022/07/17 00:45:13;;;;;;;0.70;0.60;;;12.20;99.90;;;;;;6130543;23;20448;-86
2022/07/17 00:48:00;;;;;;;1.20;0.60;;;12.20;99.90;;;;;;6105970;23;20017;-85
2022/07/17 00:50:32;;;;;;;1.83;0.55;;;12.10;99.90;;;;;;6156483;23;20049;-86
2022/07/17 00:52:58;;;;;;;2.22;0.65;;;12.10;99.90;;;;;;6156598;23;20158;-86
2022/07/17 00:55:24;;;;;;;3.65;0.50;;;12.10;99.90;;;;;;6130155;23;20024;-86
2022/07/17 00:57:51;;;;;;;0.88;0.50;;;12.10;99.90;;;;;;6130008;23;20029;-86
2022/07/17 01:00:18;;;;;;;0.98;0.50;;;12.20;99.90;;;;;;6129856;23;20455;-86
2022/07/17 01:02:48;;;;;;;3.30;0.85;;;12.00;99.90;;;;;;6155834;23;20018;-86
2022/07/17 01:05:16;;;;;;;1.67;0.60;;;12.00;99.90;;;;;;6156202;23;20105;-87
2022/07/17 01:07:42;;;;;;;1.08;0.47;;;12.00;99.90;;;;;;6156756;23;20017;-86
2022/07/17 01:10:08;;;;;;;2.10;0.60;;;11.90;99.90;;;;;;6156355;23;20348;-86
2022/07/17 01:12:34;;;;;;;2.50;0.52;;;11.90;99.90;;;;;;6130517;23;20025;-86
2022/07/17 01:15:01;;;;;;;0.60;0.43;;;11.90;99.90;;;;;;6129819;23;20080;-86
2022/07/17 01:17:27;;;;;;;2.70;0.57;;;11.90;99.90;;;;;;6130192;23;20028;-87
2022/07/17 01:19:53;;;;;;;1.85;0.50;;;11.80;99.90;;;;;;6130603;23;20089;-87
2022/07/17 01:22:22;;;;;;;1.10;0.50;;;11.80;99.90;;;;;;6129901;23;20018;-86
2022/07/17 01:24:48;;;;;;;0.70;0.50;;;11.80;99.90;;;;;;6129173;23;20021;-86
2022/07/17 01:27:15;;;;;;;3.28;0.70;;;11.80;99.90;;;;;;6129693;23;20040;-86
2022/07/17 01:29:41;;;;;;;1.23;0.47;;;11.80;99.90;;;;;;6156256;23;20021;-86
2022/07/17 01:32:07;;;;;;;1.70;0.70;;;11.80;99.90;;;;;;6130002;23;20025;-86
2022/07/17 01:34:33;;;;;;;2.10;0.85;;;11.70;99.90;;;;;;6155653;23;20072;-86
2022/07/17 01:36:59;;;;;;;4.10;0.70;;;11.70;99.90;;;;;;6105068;23;20021;-86
2022/07/17 01:42:09;;;;;;;1.60;0.60;;;11.70;99.90;;;;;;6129490;23;20017;-86
2022/07/17 01:44:35;;;;;;;1.20;0.80;;;11.70;99.90;;;;;;6156030;23;20021;-87
2022/07/17 01:47:01;;;;;;;2.08;0.57;;;11.70;99.90;;;;;;6156098;23;20020;-86
2022/07/17 01:49:27;;;;;;;1.63;0.60;;;11.60;99.90;;;;;;6156261;23;20348;-86
2022/07/17 01:51:53;;;;;;;2.28;0.68;;;11.70;99.90;;;;;;6129906;23;20025;-87
2022/07/17 01:54:18;;;;;;;1.00;0.70;;;11.60;99.90;;;;;;6155882;23;20025;-86
2022/07/17 01:56:44;;;;;;;1.20;0.60;;;11.60;99.90;;;;;;6155389;23;20407;-85
2022/07/17 01:59:10;;;;;;;3.10;0.60;;;11.60;99.90;;;;;;6155998;23;20018;-86
2022/07/17 02:01:36;;;;;;;0.82;0.70;;;11.60;99.90;;;;;;6129561;23;20030;-85
2022/07/17 02:04:01;;;;;;;0.60;0.55;;;12.10;99.90;;;;;;6129414;23;20411;-86
2022/07/17 02:06:27;;;;;;;1.10;0.60;;;11.50;99.90;;;;;;6129770;23;20067;-86
2022/07/17 02:08:53;;;;;;;1.35;0.60;;;11.50;99.90;;;;;;6129251;23;20400;-86
2022/07/17 02:11:18;;;;;;;1.10;0.70;;;11.60;99.90;;;;;;6129554;23;20017;-86
2022/07/17 02:13:44;;;;;;;4.30;0.70;;;12.20;99.90;;;;;;6155863;23;20344;-86
2022/07/17 02:16:10;;;;;;;1.60;0.90;;;11.50;99.90;;;;;;6155859;23;20074;-86
2022/07/17 02:18:36;;;;;;;2.15;0.90;;;11.50;99.90;;;;;;6129416;23;20076;-86
2022/07/17 02:21:02;;;;;;;0.85;0.60;;;11.50;99.90;;;;;;6156244;23;20024;-86
2022/07/17 02:23:28;;;;;;;2.75;0.70;;;11.50;99.90;;;;;;6130234;23;20018;-86
2022/07/17 02:25:54;;;;;;;1.55;0.60;;;11.50;99.90;;;;;;6155291;23;20025;-86
2022/07/17 02:28:20;;;;;;;2.22;0.70;;;11.40;99.90;;;;;;6155361;23;20018;-86
2022/07/17 02:30:47;;;;;;;1.38;0.65;;;11.50;99.90;;;;;;6128953;23;20029;-85
2022/07/17 02:33:13;;;;;;;0.95;0.50;;;11.90;99.90;;;;;;6129215;23;20104;-85
2022/07/17 02:35:39;;;;;;;1.20;0.73;;;12.00;99.90;;;;;;6129179;23;20045;-86
2022/07/17 02:38:05;;;;;;;3.45;0.75;;;11.40;99.90;;;;;;6128958;23;20024;-85
2022/07/17 02:40:31;;;;;;;1.88;0.60;;;11.70;99.90;;;;;;6155568;23;20031;-86
2022/07/17 02:42:57;;;;;;;0.47;0.40;;;11.40;99.90;;;;;;6155752;23;20020;-85
2022/07/17 02:45:24;;;;;;;1.23;0.55;;;12.10;99.90;;;;;;6129861;23;20052;-85
2022/07/17 02:47:52;;;;;;;2.95;0.45;;;11.30;99.90;;;;;;6155814;23;20018;-86
2022/07/17 02:50:18;;;;;;;2.22;0.73;;;11.30;99.90;;;;;;6155443;23;20467;-86
2022/07/17 02:52:43;;;;;;;1.02;0.70;;;11.20;99.90;;;;;;6129378;23;20444;-85
2022/07/17 02:55:10;;;;;;;1.52;0.73;;;11.10;99.90;;;;;;6129002;23;20024;-86
2022/07/17 02:57:38;;;;;;;1.83;0.90;;;11.00;99.90;;;;;;6155040;23;20056;-86
2022/07/17 03:00:09;;;;;;;2.33;1.10;;;10.90;99.90;;;;;;6129380;23;20045;-86
2022/07/17 03:02:35;;;;;;;2.05;0.65;;;10.80;99.90;;;;;;6154953;23;20017;-86
2022/07/17 03:05:01;;;;;;;2.65;0.85;;;10.80;99.90;;;;;;6154879;23;20141;-87
2022/07/17 03:07:27;;;;;;;2.08;0.80;;;11.00;99.90;;;;;;6104815;23;20084;-86
2022/07/17 03:09:53;;;;;;;1.27;0.70;;;10.80;99.90;;;;;;6155411;23;20025;-86
2022/07/17 03:12:18;;;;;;;2.28;1.38;;;10.80;99.90;;;;;;6129085;23;20441;-86
2022/07/17 03:14:44;;;;;;;2.63;0.85;;;11.00;99.90;;;;;;6129197;23;20076;-86
2022/07/17 03:17:10;;;;;;;3.60;0.85;;;10.80;99.90;;;;;;6129545;23;20021;-85
2022/07/17 03:19:35;;;;;;;2.58;0.80;;;10.80;99.90;;;;;;6129986;23;20025;-85
2022/07/17 03:22:01;;;;;;;1.98;0.93;;;10.90;99.90;;;;;;6155430;23;20021;-86
2022/07/17 03:24:27;;;;;;;1.45;0.90;;;10.90;99.90;;;;;;6129338;23;20101;-86
2022/07/17 03:26:53;;;;;;;1.60;0.90;;;10.90;99.90;;;;;;6132759;23;20100;-86
2022/07/17 03:29:19;;;;;;;2.47;0.98;;;11.00;99.90;;;;;;6157393;23;20379;-86
2022/07/17 03:31:46;;;;;;;2.50;0.80;;;11.10;99.90;;;;;;6128763;23;20025;-86
2022/07/17 03:34:11;;;;;;;3.53;0.80;;;11.00;99.90;;;;;;6128712;23;20024;-85
2022/07/17 03:36:37;;;;;;;2.90;0.93;;;11.00;99.90;;;;;;6129548;23;20021;-86
2022/07/17 03:39:06;;;;;;;2.00;0.77;;;11.40;99.90;;;;;;6156237;23;20336;-86
2022/07/17 03:41:31;;;;;;;1.88;0.77;;;11.10;99.90;;;;;;6156325;23;20318;-86
2022/07/17 03:43:57;;;;;;;3.13;0.80;;;11.30;99.90;;;;;;6130099;23;20092;-86
2022/07/17 03:46:23;;;;;;;1.83;0.70;;;11.30;99.90;;;;;;6157208;23;20014;-86
2022/07/17 03:48:49;;;;;;;2.03;0.65;;;11.20;99.90;;;;;;6173195;23;20041;-86
2022/07/17 03:51:15;;;;;;;1.08;0.80;;;11.30;99.90;;;;;;6175379;23;20093;-87
2022/07/17 03:53:41;;;;;;;2.40;0.80;;;11.30;99.90;;;;;;6157988;23;20088;-86
2022/07/17 03:56:07;;;;;;;2.85;1.45;;;11.30;99.90;;;;;;6131996;23;20061;-85
2022/07/17 03:58:33;;;;;;;2.15;0.70;;;11.30;99.90;;;;;;6158725;23;20017;-86
2022/07/17 04:00:59;;;;;;;1.15;0.70;;;11.40;99.90;;;;;;6131712;23;20133;-86
2022/07/17 04:03:25;;;;;;;1.58;0.60;;;11.60;99.90;;;;;;6131033;23;20056;-86
2022/07/17 04:05:51;;;;;;;0.90;0.70;;;11.90;99.90;;;;;;6157700;23;20100;-86
2022/07/17 04:08:18;;;;;;;1.42;0.77;;;11.90;99.90;;;;;;6158675;23;20022;-86
2022/07/17 04:10:44;;;;;;;2.00;0.70;;;10.90;99.90;;;;;;6158063;23;20018;-86
2022/07/17 04:13:10;;;;;;;3.05;0.85;;;11.60;99.90;;;;;;6131281;23;20020;-86
2022/07/17 04:15:57;;;;;;;1.42;0.60;;;11.60;99.90;;;;;;6106173;23;20060;-86
2022/07/17 04:18:24;;;;;;;1.98;0.80;;;11.60;99.90;;;;;;6131323;23;20463;-87
2022/07/17 04:20:51;;;;;;;0.98;0.60;;;11.60;99.90;;;;;;6157782;23;20017;-86
2022/07/17 04:23:16;;;;;;;0.98;0.50;;;11.70;99.90;;;;;;6130891;23;20018;-86
2022/07/17 04:25:43;;;;;;;1.58;0.60;;;11.70;99.90;;;;;;6154942;23;20029;-86
2022/07/17 04:28:09;;;;;;;0.90;0.60;;;11.70;99.90;;;;;;6130386;23;20092;-86
2022/07/17 04:30:35;;;;;;;1.23;0.60;;;11.70;99.90;;;;;;6154925;23;20116;-86
2022/07/17 04:33:01;;;;;;;2.90;0.60;;;12.40;99.90;;;;;;6130656;23;20392;-86
2022/07/17 04:35:27;;;;;;;2.15;0.60;;;11.80;99.90;;;;;;6130855;23;20021;-85
2022/07/17 04:37:53;;;;;;;2.50;0.50;;;11.80;99.90;;;;;;6157209;23;20025;-86
2022/07/17 04:40:19;;;;;;;3.40;1.20;;;11.90;99.90;;;;;;6156993;23;20006;-86
2022/07/17 04:42:45;;;;;;;0.93;0.55;;;12.00;99.90;;;;;;6130814;23;20032;-86
2022/07/17 04:45:11;;;;;;;1.15;0.47;;;11.90;99.90;;;;;;6156759;23;20045;-86
2022/07/17 04:47:37;;;;;;;2.60;0.50;;;12.10;99.90;;;;;;6130047;23;20439;-86
2022/07/17 04:50:03;;;;;;;1.73;0.70;;;12.20;99.90;;;;;;6157047;23;20021;-86
2022/07/17 04:52:30;;;;;;;0.55;0.40;;;12.10;99.90;;;;;;6130599;23;20024;-86
2022/07/17 04:54:56;;;;;;;1.58;0.50;;;12.70;99.90;;;;;;6130405;23;20028;-86
2022/07/17 04:57:22;;;;;;;0.73;0.43;;;12.20;99.90;;;;;;6129584;23;20013;-86
2022/07/17 04:59:48;;;;;;;2.83;0.40;;;12.90;99.90;;;;;;6128948;23;20021;-87
2022/07/17 05:02:13;;;;;;;1.85;0.40;;;12.30;99.90;;;;;;6156135;23;20026;-86
2022/07/17 05:04:39;;;;;;;0.80;0.50;;;12.30;99.90;;;;;;6156273;23;20084;-86
2022/07/17 05:07:05;;;;;;;2.35;0.47;;;12.50;99.90;;;;;;6129975;23;20448;-87
2022/07/17 05:09:31;;;;;;;1.00;0.30;;;12.40;99.90;;;;;;6154537;23;20080;-86
2022/07/17 05:11:57;;;;;;;0.52;0.30;;;12.70;99.90;;;;;;6156009;23;20021;-87
2022/07/17 05:14:23;;;;;;;0.50;0.30;;;12.70;99.90;;;;;;6129639;23;20024;-87
2022/07/17 05:16:48;;;;;;;0.70;0.30;;;12.60;99.90;;;;;;6154626;23;20056;-86
2022/07/17 05:19:14;;;;;;;1.67;0.32;;;12.60;99.90;;;;;;6156309;23;20092;-87
2022/07/17 05:21:40;;;;;;;0.73;0.35;;;12.60;99.90;;;;;;6156071;23;20013;-86
2022/07/17 05:24:05;;;;;;;0.52;0.30;;;12.70;99.90;;;;;;6155750;23;20021;-87
2022/07/17 05:26:31;;;;;;;0.70;0.30;;;12.70;99.90;;;;;;6129264;23;20037;-86
2022/07/17 05:28:57;;;;;;;0.50;0.30;;;12.80;99.90;;;;;;6129119;23;20036;-86
2022/07/17 05:31:23;;;;;;;2.85;0.52;;;12.90;99.90;;;;;;6129311;23;20049;-87
2022/07/17 05:33:49;;;;;;;0.40;0.30;;;13.00;99.90;;;;;;6156334;23;20022;-86
2022/07/17 05:36:15;;;;;;;1.15;0.43;;;13.10;99.90;;;;;;6105233;23;20009;-86
2022/07/17 05:38:41;;;;;;;0.52;0.30;;;13.10;99.90;;;;;;6155980;23;20017;-86
2022/07/17 05:41:06;;;;;;;1.33;0.30;;;13.20;99.90;;;;;;6156277;23;20036;-86
2022/07/17 05:43:32;;;;;;;0.55;0.30;;;13.20;99.90;;;;;;6129742;23;20103;-86
2022/07/17 05:45:58;;;;;;;0.80;0.50;;;13.40;99.90;;;;;;6129754;23;20014;-86
2022/07/17 05:48:26;;;;;;;1.23;0.50;;;13.70;99.90;;;;;;6155842;23;20024;-87
2022/07/17 05:50:53;;;;;;;0.98;0.30;;;13.80;99.90;;;;;;6129298;23;20025;-86
2022/07/17 05:53:19;;;;;;;0.63;0.30;;;13.80;99.90;;;;;;6129321;23;20093;-87
2022/07/17 05:55:44;;;;;;;0.50;0.30;;;13.90;99.90;;;;;;6155429;23;20060;-86
2022/07/17 05:58:10;;;;;;;0.90;0.40;;;14.10;99.90;;;;;;6155081;23;20013;-87
2022/07/17 06:00:37;;;;;;;0.30;0.30;;;14.20;99.90;;;;;;6129524;23;20028;-87
2022/07/17 06:03:03;;;;;;;0.50;0.40;;;14.20;99.90;;;;;;6155697;23;20009;-86
2022/07/17 06:05:29;;;;;;;0.40;0.30;;;14.40;99.90;;;;;;6129541;23;20339;-86
2022/07/17 06:07:56;;;;;;;0.75;0.32;;;14.30;99.90;;;;;;6129413;23;20021;-87
2022/07/17 06:10:22;;;;;;;0.75;0.40;;;14.40;99.90;;;;;;6155112;23;20017;-87
2022/07/17 06:12:49;;;;;;;0.43;0.30;;;14.40;99.90;;;;;;6155755;23;20021;-87
2022/07/17 06:15:17;;;;;;;0.82;0.30;;;14.40;99.90;;;;;;6155661;23;20021;-86
2022/07/17 06:17:43;;;;;;;0.90;0.40;;;14.40;99.90;;;;;;6129298;23;20353;-86
2022/07/17 06:20:10;;;;;;;0.40;0.38;;;14.40;99.90;;;;;;6129492;23;20017;-85
2022/07/17 06:22:35;;;;;;;0.38;0.30;;;14.50;99.90;;;;;;6155540;23;20452;-86
2022/07/17 06:25:01;;;;;;;1.67;1.58;;;14.60;99.90;;;;;;6128949;23;20025;-86
2022/07/17 06:27:27;;;;;;;0.60;0.35;;;14.70;99.90;;;;;;6128917;23;20076;-86
2022/07/17 06:30:12;;;;;;;1.83;0.40;;;14.90;99.90;;;;;;6129419;23;20021;-91
2022/07/17 06:37:47;;;;;;;1.92;0.50;;;15.40;99.90;;;;;;6157274;23;20026;-89
2022/07/17 06:40:19;;;;;;;1.63;0.20;;;15.40;99.90;;;;;;6156631;23;20017;-89
2022/07/17 06:42:46;;;;;;;0.75;0.40;;;15.60;99.90;;;;;;6129924;23;20444;-90
2022/07/17 06:45:25;;;;;;;;;;;;;;;;;;;;;
2022/07/17 06:47:52;;;;;;;2.25;0.40;;;15.60;99.90;;;;;;6149697;23;20108;-87
2022/07/17 06:51:04;;;;;;;1.95;0.28;;;15.70;99.90;;;;;;6130256;23;20078;-88
2022/07/17 08:59:27;;;;;;;0.77;0.20;;;21.40;99.90;;;;;;6093626;23;20129;31
2022/07/17 09:21:41;;;;;;;;;;;;;;;;;;;;;
2022/07/17 09:26:48;;;;;;;0.80;0.15;;;22.50;99.70;;;;;;6137616;23;20082;-87
2022/07/17 09:37:14;;;;;;;0.43;0.20;;;23.10;99.90;;;;;;6155723;23;20471;-82
2022/07/17 09:39:41;;;;;;;1.60;0.57;;;23.00;99.90;;;;;;6153882;23;20040;-86
2022/07/17 09:42:07;;;;;;;0.80;0.10;;;23.20;99.90;;;;;;6156151;23;20014;-87
2022/07/17 09:48:15;;;;;;;2.38;0.40;;;23.30;98.60;;;;;;6155732;23;20068;-86
2022/07/17 09:50:41;;;;;;;0.35;0.20;;;23.40;98.30;;;;;;6153858;23;20080;-85
2022/07/17 09:53:08;;;;;;;0.88;0.25;;;23.50;97.00;;;;;;6155395;23;20443;-86
2022/07/17 09:55:34;;;;;;;1.25;0.30;;;23.40;98.30;;;;;;6154246;23;20088;-87
2022/07/17 09:58:02;;;;;;;1.77;0.30;;;23.70;97.50;;;;;;6153769;23;20436;-86
2022/07/17 10:00:48;;;;;;;1.88;0.17;;;23.70;98.10;;;;;;6155965;23;20029;-87
2022/07/17 10:05:50;;;;;;;0.65;0.20;;;23.70;95.80;;;;;;6180633;23;20478;-91
2022/07/17 10:08:19;;;;;;;0.40;0.10;;;23.90;98.50;;;;;;6185906;23;20028;-90
2022/07/17 10:10:58;;;;;;;;;;;;;;;;;;;;;
2022/07/17 10:17:59;;;;;;;0.80;0.38;;;24.70;96.80;;;;;;6158692;23;20013;-89
2022/07/17 10:23:52;;;;;;;3.08;0.30;;;24.60;94.90;;;;;;6067934;23;20101;-91
2022/07/17 10:27:55;;;;;;;0.77;0.30;;;24.40;95.30;;;;;;6129476;23;20045;-90
2022/07/17 10:30:38;;;;;;;;;;;;;;;;;;;;;
2022/07/17 10:33:36;;;;;;;2.53;0.20;;;24.40;94.90;;;;;;5948172;23;20019;-92
2022/07/17 10:36:02;;;;;;;0.68;0.30;;;24.70;95.10;;;;;;6017006;23;20021;-88
2022/07/17 10:38:28;;;;;;;1.17;0.20;;;24.90;95.50;;;;;;6040606;23;20486;-87
2022/07/17 10:41:12;;;;;;;1.77;0.30;;;25.10;95.90;;;;;;6014413;23;20075;-90
2022/07/17 10:43:44;;;;;;;2.38;0.20;;;25.40;95.10;;;;;;6016476;23;20038;-89
2022/07/17 10:46:20;;;;;;;;;;;;;;;;;;;;;
2022/07/17 10:49:08;;;;;;;;;;;;;;;;;;;;;
2022/07/17 10:51:42;;;;;;;1.30;0.20;;;25.60;95.00;;;;;;6010100;23;20020;-90
2022/07/17 10:54:10;;;;;;;1.92;0.20;;;25.60;92.20;;;;;;6036144;23;20016;-90
2022/07/17 10:56:36;;;;;;;1.75;0.30;;;25.80;92.60;;;;;;6060378;23;20083;-88
2022/07/17 10:59:18;;;;;;;;;;;;;;;;;;;;;
2022/07/17 11:01:58;;;;;;;2.58;0.40;;;25.90;92.20;;;;;;5965769;23;20473;-90
2022/07/17 11:04:39;;;;;;;0.90;0.30;;;26.00;92.70;;;;;;6129021;23;20344;-88
2022/07/17 11:07:19;;;;;;;0.30;0.10;;;26.30;91.80;;;;;;6104912;23;20021;-88
2022/07/17 11:10:12;;;;;;;0.93;0.20;;;26.00;90.70;;;;;;6129392;23;20076;-87
2022/07/17 11:12:47;;;;;;;0.98;0.15;;;25.90;91.10;;;;;;6154564;23;20392;-88
2022/07/17 11:19:38;;;;;;;0.93;0.20;;;26.10;92.00;;;;;;6155390;23;20048;-89
2022/07/17 11:22:12;;;;;;;0.20;0.13;;;26.60;92.80;;;;;;6128668;23;20022;-88
2022/07/17 11:31:27;;;;;;;1.17;0.30;;;26.90;92.50;;;;;;6153857;23;20037;-88
2022/07/17 11:34:13;;;;;;;;;;;;;;;;;;;;;
2022/07/17 11:37:13;;;;;;;0.40;0.28;;;27.10;86.70;;;;;;6062936;23;20070;-92
2022/07/17 11:50:21;;;;;;;1.73;0.30;;;26.70;91.30;;;;;;6129097;23;20022;-92
2022/07/17 12:08:00;;;;;;;1.02;0.20;;;27.50;88.00;;;;;;6128766;23;20021;-88
2022/07/17 12:17:49;;;;;;;1.73;0.45;;;27.80;87.80;;;;;;6103558;23;20048;-89
2022/07/17 12:24:15;;;;;;;2.67;0.55;;;28.10;83.60;;;;;;6158337;23;20029;-89
2022/07/17 12:26:56;;;;;;;2.05;0.40;;;28.10;86.00;;;;;;6164371;23;20033;-87
2022/07/17 12:29:43;;;;;;;0.93;0.50;;;28.20;85.60;;;;;;6132794;23;20025;-90
2022/07/17 12:32:10;;;;;;;1.35;0.50;;;28.20;86.00;;;;;;6130600;23;20028;-87
2022/07/17 12:57:15;;;;;;;2.78;0.73;;;28.40;80.60;;;;;;6143067;23;20030;-89
2022/07/17 13:33:48;;;;;;;1.25;0.52;;;29.10;75.40;;;;;;6166215;23;20459;-93
2022/07/17 13:36:33;;;;;;;1.38;0.50;;;29.10;75.40;;;;;;6185879;23;20344;-89
2022/07/17 13:46:55;;;;;;;3.75;0.85;;;29.50;75.50;;;;;;6180522;23;20080;-89
2022/07/17 13:53:41;;;;;;;2.90;1.05;;;29.60;73.40;;;;;;6064767;23;20469;-92
2022/07/17 13:56:15;;;;;;;1.63;0.60;;;29.30;73.10;;;;;;6040497;23;20030;-88
2022/07/17 15:06:46;;;;;;;1.27;0.75;;;28.70;78.00;;;;;;6065345;23;20025;-93
2022/07/17 15:09:39;;;;;;;2.67;0.93;;;28.50;76.00;;;;;;6040883;23;20062;-90
2022/07/17 15:12:08;;;;;;;1.73;0.70;;;28.60;77.30;;;;;;6018088;23;20069;-87
2022/07/17 15:15:24;;;;;;;1.42;0.70;;;28.70;78.10;;;;;;6041151;23;20090;-89
2022/07/17 15:18:04;;;;;;;2.95;0.77;;;28.70;76.80;;;;;;6088135;23;20452;-87
2022/07/17 15:20:41;;;;;;;1.95;0.70;;;28.80;76.80;;;;;;6153583;23;20048;-89
2022/07/17 15:23:07;;;;;;;1.20;0.70;;;29.00;78.70;;;;;;6154003;23;20045;-89
2022/07/17 15:29:08;;;;;;;1.73;0.60;;;29.10;77.60;;;;;;6155802;23;20022;-87
2022/07/17 15:35:40;;;;;;;1.60;0.88;;;28.90;76.50;;;;;;6138979;23;20071;-85
2022/07/17 15:38:06;;;;;;;1.55;0.70;;;29.10;75.40;;;;;;6155434;23;20049;-87
2022/07/17 15:40:34;;;;;;;1.95;0.80;;;29.10;75.30;;;;;;6158670;23;20021;-88
2022/07/17 15:43:15;;;;;;;1.70;0.63;;;29.20;76.90;;;;;;6158327;23;20021;-90
2022/07/17 15:45:41;;;;;;;1.27;0.80;;;29.40;77.40;;;;;;6155172;23;20064;-88
2022/07/17 15:51:11;;;;;;;;;;;;;;;;;;;;;
2022/07/17 15:56:50;;;;;;;3.13;0.80;;;29.70;71.00;;;;;;6153143;23;20149;-87
2022/07/17 15:59:31;;;;;;;;;;;;;;;;;;;;;
2022/07/17 16:49:53;;;;;;;3.90;1.13;;;28.50;78.20;;;;;;6156074;23;20021;-84
2022/07/17 16:52:19;;;;;;;2.30;0.90;;;28.60;77.10;;;;;;6156238;23;20025;-85
2022/07/17 16:54:45;;;;;;;1.85;0.82;;;28.60;79.00;;;;;;6155201;23;20070;-88
2022/07/17 16:57:11;;;;;;;1.42;0.90;;;28.70;76.20;;;;;;6155544;23;20017;-88
2022/07/17 16:59:37;;;;;;;2.45;0.90;;;28.60;75.10;;;;;;6155551;23;20064;-87
2022/07/17 17:02:15;;;;;;;2.90;1.05;;;28.70;76.70;;;;;;6156431;23;20017;-93
2022/07/17 17:04:40;;;;;;;2.28;0.90;;;28.70;75.50;;;;;;6155414;23;20017;-86
2022/07/17 17:07:08;;;;;;;2.63;0.90;;;28.70;76.90;;;;;;6156388;23;20095;-91
2022/07/17 17:09:34;;;;;;;1.73;1.10;;;28.60;73.40;;;;;;6158031;23;20048;-91
2022/07/17 17:12:41;;;;;;;4.05;0.93;;;28.40;75.90;;;;;;6155606;23;20436;-88
2022/07/17 17:19:49;;;;;;;;;;;;;;;;;;;;;
2022/07/17 17:22:30;;;;;;;1.85;1.00;;;27.80;78.20;;;;;;6012816;23;20030;-89
2022/07/17 17:25:06;;;;;;;;;;;;;;;;;;;;;
2022/07/17 17:27:32;;;;;;;1.90;1.00;;;27.30;76.90;;;;;;6020713;23;20022;-89
2022/07/17 17:29:57;;;;;;;3.45;1.00;;;27.10;77.70;;;;;;5989425;23;20107;-87
2022/07/17 17:32:23;;;;;;;1.90;0.77;;;27.00;77.30;;;;;;5986673;23;20165;-87
2022/07/17 17:34:55;;;;;;;2.17;0.80;;;26.80;78.00;;;;;;6025936;23;20368;-89
2022/07/17 17:37:26;;;;;;;1.52;0.90;;;26.70;78.60;;;;;;6145297;23;20084;-88
2022/07/17 17:39:54;;;;;;;1.85;0.90;;;26.50;81.20;;;;;;6190863;23;20025;-88
2022/07/17 17:42:20;;;;;;;1.95;1.00;;;26.30;79.60;;;;;;6102417;23;20149;-89
2022/07/17 17:44:46;;;;;;;3.55;1.08;;;26.20;82.30;;;;;;6102286;23;20022;-87
2022/07/17 17:47:12;;;;;;;1.88;1.00;;;26.20;81.40;;;;;;6130511;23;20061;-88
2022/07/17 17:49:38;;;;;;;2.80;1.10;;;26.00;81.40;;;;;;6100464;23;20053;-88
2022/07/17 17:52:07;;;;;;;2.55;0.88;;;26.00;82.10;;;;;;6098718;23;20027;-89
2022/07/17 17:54:47;;;;;;;3.85;0.90;;;25.90;82.10;;;;;;6102485;23;20026;-90
2022/07/17 17:57:55;;;;;;;1.73;0.82;;;25.90;82.40;;;;;;6099393;23;20029;-91
2022/07/17 18:04:51;;;;;;;1.55;0.80;;;25.80;81.40;;;;;;6122866;23;20021;-89
2022/07/17 18:37:16;;;;;;;1.83;0.88;;;23.50;93.00;;;;;;6150962;23;20029;-88
2022/07/17 18:39:45;;;;;;;2.53;0.40;;;23.50;93.30;;;;;;6154769;23;20440;-87
2022/07/17 18:42:11;;;;;;;2.00;0.57;;;23.30;94.00;;;;;;6156387;23;20025;-87
2022/07/17 18:44:37;;;;;;;0.77;0.47;;;23.20;94.50;;;;;;6181221;23;20017;-86
2022/07/17 18:47:37;;;;;;;1.33;0.50;;;23.10;94.20;;;;;;6153760;23;20089;-90
2022/07/17 18:51:12;;;;;;;3.25;0.40;;;23.10;94.30;;;;;;6178702;23;20021;-89
2022/07/17 18:54:33;;;;;;;2.13;0.55;;;22.90;95.50;;;;;;5961261;24;20024;-91
2022/07/17 19:04:11;;;;;;;0.98;0.60;;;22.50;97.00;;;;;;6094725;23;20171;31
2022/07/17 19:13:37;;;;;;;0.82;0.50;;;22.10;99.20;;;;;;6180898;23;20028;-90
2022/07/17 19:45:45;;;;;;;2.70;0.80;;;21.20;99.90;;;;;;6153689;23;20074;-90
2022/07/17 19:48:11;;;;;;;1.83;0.60;;;21.00;99.90;;;;;;6160754;23;20056;-88
2022/07/17 19:50:40;;;;;;;1.95;0.70;;;20.90;99.90;;;;;;6160787;23;20088;-86
2022/07/17 19:53:05;;;;;;;0.98;0.60;;;20.90;99.90;;;;;;6160445;23;20355;-93
2022/07/17 19:56:14;;;;;;;2.13;0.52;;;20.90;99.90;;;;;;6190542;23;20088;-91
2022/07/17 19:58:49;;;;;;;3.63;0.70;;;20.70;99.90;;;;;;6192902;23;20017;-87
2022/07/17 20:01:17;;;;;;;1.00;0.60;;;20.60;99.90;;;;;;6122714;22;20021;-91
2022/07/17 20:03:58;;;;;;;2.38;0.60;;;20.50;99.90;;;;;;6164264;23;20126;-90
2022/07/17 20:06:32;;;;;;;1.10;0.68;;;20.50;99.90;;;;;;6139052;23;20060;-89
2022/07/17 20:41:17;;;;;;;;;;;19.60;99.90;;;;;;5139435;22;20055;-93
2022/07/17 20:43:53;;;;;;;2.13;0.75;;;19.50;99.90;;;;;;5084573;28;20076;-87
2022/07/17 20:46:21;;;;;;;1.20;0.80;;;19.40;99.90;;;;;;5109751;28;20486;-88
2022/07/17 20:48:48;;;;;;;1.58;0.70;;;19.30;99.90;;;;;;5110011;28;20110;-89
2022/07/17 20:51:14;;;;;;;1.35;0.73;;;19.30;99.90;;;;;;5092132;28;20086;-86
2022/07/17 20:53:40;;;;;;;2.20;0.85;;;19.20;99.90;;;;;;5109196;28;20047;-87
2022/07/17 20:56:06;;;;;;;2.30;0.90;;;19.20;99.90;;;;;;5110002;28;20075;-89
2022/07/17 20:58:33;;;;;;;1.65;0.90;;;19.00;99.90;;;;;;5091927;28;20502;-88
2022/07/17 21:00:59;;;;;;;1.33;0.80;;;19.00;99.90;;;;;;5109702;28;20043;-88
2022/07/17 21:03:29;;;;;;;3.03;0.90;;;18.90;99.90;;;;;;5103026;28;20051;-87
2022/07/17 21:05:55;;;;;;;1.95;0.95;;;18.90;99.90;;;;;;5109976;28;20032;-88
2022/07/17 21:08:26;;;;;;;2.63;0.82;;;18.80;99.90;;;;;;5109514;28;20058;-89
2022/07/17 21:10:55;;;;;;;3.38;0.90;;;18.70;99.90;;;;;;5109131;28;20969;-87
2022/07/17 21:13:22;;;;;;;1.25;0.65;;;18.70;99.90;;;;;;5109615;28;20105;-86
2022/07/17 21:15:50;;;;;;;1.98;0.85;;;18.70;99.90;;;;;;5107745;28;20071;-88
2022/07/17 21:18:17;;;;;;;2.90;0.75;;;18.60;99.90;;;;;;5108926;28;20044;-89
2022/07/17 21:20:42;;;;;;;3.58;0.90;;;18.50;99.90;;;;;;5109122;28;20043;-86
2022/07/17 21:23:08;;;;;;;3.15;0.68;;;18.50;99.90;;;;;;5109157;28;20089;-89
2022/07/17 21:25:34;;;;;;;3.03;0.70;;;18.50;99.90;;;;;;5095348;28;20491;-89
2022/07/17 21:28:00;;;;;;;1.52;0.70;;;18.40;99.90;;;;;;5077803;28;20052;-88
2022/07/17 21:30:26;;;;;;;2.28;0.80;;;18.30;99.90;;;;;;5095750;28;20044;-88
2022/07/17 21:32:51;;;;;;;1.45;0.80;;;18.30;99.90;;;;;;5095342;28;20312;-86
2022/07/17 21:35:17;;;;;;;1.50;0.90;;;18.20;99.90;;;;;;5095678;28;20036;-87
2022/07/17 21:37:43;;;;;;;1.27;0.63;;;18.20;99.90;;;;;;5095129;28;20043;-85
2022/07/17 21:40:10;;;;;;;1.92;1.40;;;18.10;99.90;;;;;;5094696;28;20036;-88
2022/07/17 21:42:35;;;;;;;4.00;0.70;;;18.00;99.90;;;;;;5102078;28;20514;-89
2022/07/17 21:45:01;;;;;;;6.43;1.25;;;18.00;99.90;;;;;;5096134;28;20051;-88
2022/07/17 21:47:27;;;;;;;1.58;0.75;;;18.00;99.90;;;;;;5078032;28;20123;-88
2022/07/17 21:49:52;;;;;;;2.60;0.95;;;18.00;99.90;;;;;;5096219;28;20446;-87
2022/07/17 21:52:18;;;;;;;1.70;0.80;;;17.90;99.90;;;;;;5106324;28;20552;-87
2022/07/17 21:54:44;;;;;;;2.28;0.80;;;17.90;99.90;;;;;;5113906;28;20032;-88
2022/07/17 21:57:09;;;;;;;1.20;0.68;;;17.80;99.90;;;;;;5103798;28;20040;-89
2022/07/17 21:59:35;;;;;;;1.50;0.90;;;17.80;99.90;;;;;;5115485;28;20105;-87
2022/07/17 22:02:01;;;;;;;3.28;1.10;;;17.70;99.90;;;;;;5078785;28;20036;-87
2022/07/17 22:04:27;;;;;;;1.88;0.90;;;17.70;99.90;;;;;;5077617;28;20051;-86
2022/07/17 22:06:53;;;;;;;3.38;0.70;;;17.70;99.90;;;;;;5095199;28;20059;-87
2022/07/17 22:09:19;;;;;;;1.73;0.80;;;17.60;99.90;;;;;;5076767;28;20044;-86
2022/07/17 22:11:45;;;;;;;1.55;0.80;;;17.60;99.90;;;;;;5076706;28;20063;-86
2022/07/17 22:14:11;;;;;;;1.80;0.90;;;17.50;99.90;;;;;;5076635;28;20044;-88